Time;durP1;ratioP1;P1;durP2;ratioP2;P2;SDS_P1;SDS_P2;PMS_P1;PMS_P2;Temp;Humidity;BMP_temperature;BMP_pressure;BME280_temperature;BME280_humidity;BME280_pressure;Samples;Min_cycle;Max_cycle;Signal;HPM_P1;HPM_P2
2022/06/19 00:00:51;;;;;;;2.60;2.40;;;;;;;;;;5041268;28;20465;-78
2022/06/19 00:03:21;;;;;;;2.20;2.00;;;;;;;;;;5046882;28;20458;-79
2022/06/19 00:05:48;;;;;;;2.87;2.67;;;;;;;;;;5047752;28;20473;-80
2022/06/19 00:08:15;;;;;;;2.73;2.03;;;;;;;;;;5050810;28;20952;-79
2022/06/19 00:10:43;;;;;;;2.40;2.00;;;;;;;;;;5040032;28;20450;-78
2022/06/19 00:13:10;;;;;;;2.80;2.50;;;;;;;;;;5038178;28;20449;-78
2022/06/19 00:15:37;;;;;;;2.13;1.93;;;;;;;;;;5035279;28;21026;-78
2022/06/19 00:18:05;;;;;;;2.60;2.40;;;;;;;;;;5047872;28;20503;-79
2022/06/19 00:20:32;;;;;;;2.87;2.43;;;;;;;;;;5040140;28;20462;-80
2022/06/19 00:22:59;;;;;;;2.27;2.07;;;;;;;;;;5037706;28;20459;-79
2022/06/19 00:25:26;;;;;;;1.93;1.73;;;;;;;;;;5039379;28;20481;-79
2022/06/19 00:27:55;;;;;;;2.50;2.30;;;;;;;;;;5049595;28;20469;-79
2022/06/19 00:30:22;;;;;;;3.27;2.70;;;;;;;;;;5040393;28;20521;-79
2022/06/19 00:32:49;;;;;;;2.30;2.10;;;;;;;;;;5034565;28;20485;-80
2022/06/19 00:35:16;;;;;;;2.07;1.80;;;;;;;;;;5048957;28;20553;-78
2022/06/19 00:37:43;;;;;;;2.30;2.10;;;;;;;;;;5045470;28;20876;-78
2022/06/19 00:40:12;;;;;;;2.23;1.50;;;;;;;;;;5043572;28;20821;-78
2022/06/19 00:42:39;;;;;;;2.30;2.10;;;;;;;;;;5043082;28;20514;-77
2022/06/19 00:45:08;;;;;;;1.80;1.70;;;;;;;;;;5042144;28;20478;-80
2022/06/19 00:47:38;;;;;;;2.27;1.93;;;;;;;;;;5049971;28;20449;-78
2022/06/19 00:50:07;;;;;;;1.97;1.77;;;;;;;;;;5040393;28;20465;-79
2022/06/19 00:52:36;;;;;;;2.43;1.90;;;;;;;;;;5032613;28;20941;-80
2022/06/19 00:55:06;;;;;;;2.23;1.80;;;;;;;;;;5036970;28;20798;-79
2022/06/19 00:57:34;;;;;;;2.53;2.03;;;;;;;;;;5042436;28;20460;-79
2022/06/19 01:00:05;;;;;;;3.00;2.50;;;;;;;;;;5046320;28;20491;-81
2022/06/19 01:02:33;;;;;;;2.40;2.13;;;;;;;;;;5043920;28;20876;-79
2022/06/19 01:05:02;;;;;;;1.83;1.73;;;;;;;;;;5048235;28;20466;-80
2022/06/19 01:07:30;;;;;;;2.10;1.90;;;;;;;;;;5047580;28;20998;-79
2022/06/19 01:09:57;;;;;;;2.37;1.90;;;;;;;;;;5044773;28;20820;-79
2022/06/19 01:12:25;;;;;;;1.73;1.63;;;;;;;;;;5042350;28;20454;-78
2022/06/19 01:14:54;;;;;;;1.50;1.40;;;;;;;;;;5041465;28;20450;-78
2022/06/19 01:17:21;;;;;;;3.53;1.70;;;;;;;;;;5034784;28;20937;-80
2022/06/19 01:19:50;;;;;;;2.00;1.80;;;;;;;;;;5047218;28;20973;-77
2022/06/19 01:22:29;;;;;;;2.07;1.97;;;;;;;;;;5036228;28;20471;-79
2022/06/19 01:25:01;;;;;;;1.43;1.33;;;;;;;;;;5048577;28;20507;-79
2022/06/19 01:30:15;;;;;;;3.00;1.70;;;;;;;;;;5044374;28;20948;-80
2022/06/19 01:32:43;;;;;;;1.97;1.77;;;;;;;;;;5037004;28;20466;-79
2022/06/19 01:35:11;;;;;;;1.70;1.60;;;;;;;;;;5048858;28;20465;-79
2022/06/19 01:37:40;;;;;;;2.37;2.17;;;;;;;;;;5042068;28;20457;-80
2022/06/19 01:40:12;;;;;;;3.20;1.50;;;;;;;;;;5048894;28;20457;-81
2022/06/19 01:42:40;;;;;;;1.90;1.77;;;;;;;;;;5045165;28;20524;-79
2022/06/19 01:45:07;;;;;;;2.57;1.27;;;;;;;;;;5049401;28;20951;-80
2022/06/19 01:47:36;;;;;;;1.40;1.30;;;;;;;;;;5044476;28;20539;-79
2022/06/19 01:50:03;;;;;;;2.27;2.00;;;;;;;;;;5051054;28;20462;-81
2022/06/19 01:52:31;;;;;;;1.80;1.60;;;;;;;;;;5040335;28;20456;-79
2022/06/19 01:55:00;;;;;;;1.70;1.53;;;;;;;;;;5051911;28;20468;-81
2022/06/19 01:57:29;;;;;;;3.43;1.60;;;;;;;;;;5046950;28;20453;-80
2022/06/19 01:59:58;;;;;;;1.60;1.50;;;;;;;;;;5048509;28;20460;-81
2022/06/19 02:02:25;;;;;;;1.37;1.20;;;;;;;;;;5045402;28;20829;-80
2022/06/19 02:04:52;;;;;;;1.40;1.30;;;;;;;;;;5052012;28;20437;-80
2022/06/19 02:07:21;;;;;;;2.07;1.67;;;;;;;;;;5044030;28;20542;-81
2022/06/19 02:09:48;;;;;;;2.07;1.20;;;;;;;;;;5040687;28;20474;-79
2022/06/19 02:12:16;;;;;;;2.00;1.40;;;;;;;;;;5049521;28;20457;-77
2022/06/19 02:14:44;;;;;;;2.87;1.60;;;;;;;;;;5050791;28;20523;-80
2022/06/19 02:17:13;;;;;;;1.97;1.40;;;;;;;;;;5044071;28;20527;-79
2022/06/19 02:19:40;;;;;;;1.63;1.33;;;;;;;;;;5051227;28;20464;-80
2022/06/19 02:22:11;;;;;;;2.00;1.27;;;;;;;;;;5043537;28;20515;-78
2022/06/19 02:24:39;;;;;;;1.60;1.40;;;;;;;;;;5048921;28;20987;-77
2022/06/19 02:27:06;;;;;;;1.97;1.60;;;;;;;;;;5045715;28;20481;-80
2022/06/19 02:29:35;;;;;;;1.50;1.10;;;;;;;;;;5038143;28;20947;-78
2022/06/19 02:32:04;;;;;;;1.60;1.40;;;;;;;;;;5044808;28;20465;-79
2022/06/19 02:34:33;;;;;;;1.70;1.60;;;;;;;;;;5039662;28;20527;-78
2022/06/19 02:37:01;;;;;;;2.20;1.93;;;;;;;;;;5046274;28;20881;-79
2022/06/19 02:39:31;;;;;;;1.80;1.30;;;;;;;;;;5036934;28;20997;-80
2022/06/19 02:42:02;;;;;;;1.90;1.70;;;;;;;;;;5048038;28;20531;-80
2022/06/19 02:44:33;;;;;;;1.90;1.60;;;;;;;;;;5041380;28;20568;-79
2022/06/19 02:47:00;;;;;;;2.63;1.60;;;;;;;;;;5043859;28;21585;-79
2022/06/19 02:49:29;;;;;;;2.50;1.47;;;;;;;;;;5045606;28;20971;-77
2022/06/19 02:51:56;;;;;;;1.80;1.70;;;;;;;;;;5041166;28;20719;-79
2022/06/19 02:54:23;;;;;;;1.50;1.13;;;;;;;;;;5045627;28;20508;-79
2022/06/19 02:56:51;;;;;;;2.13;1.33;;;;;;;;;;5050163;28;20457;-80
2022/06/19 02:59:18;;;;;;;1.67;1.37;;;;;;;;;;5042293;28;20871;-79
2022/06/19 03:01:45;;;;;;;1.60;1.20;;;;;;;;;;5045146;28;20461;-81
2022/06/19 03:04:15;;;;;;;1.80;1.30;;;;;;;;;;5051246;28;20454;-80
2022/06/19 03:06:44;;;;;;;2.23;1.83;;;;;;;;;;5039970;28;21047;-81
2022/06/19 03:09:11;;;;;;;1.73;1.50;;;;;;;;;;5040095;28;20450;-80
2022/06/19 03:11:38;;;;;;;2.67;1.33;;;;;;;;;;5040758;28;20511;-80
2022/06/19 03:14:05;;;;;;;2.20;1.33;;;;;;;;;;5051685;28;20507;-79
2022/06/19 03:16:32;;;;;;;1.50;1.30;;;;;;;;;;5041120;28;20548;-80
2022/06/19 03:18:59;;;;;;;1.77;1.20;;;;;;;;;;5052068;28;20449;-80
2022/06/19 03:21:26;;;;;;;1.60;1.10;;;;;;;;;;5045307;28;20466;-81
2022/06/19 03:23:54;;;;;;;1.60;1.13;;;;;;;;;;5042149;28;20803;-80
2022/06/19 03:26:21;;;;;;;3.93;1.50;;;;;;;;;;5050118;28;20527;-80
2022/06/19 03:28:48;;;;;;;1.53;1.30;;;;;;;;;;5041107;28;20462;-81
2022/06/19 03:31:16;;;;;;;1.20;1.10;;;;;;;;;;5036214;28;20953;-80
2022/06/19 03:33:44;;;;;;;1.97;1.13;;;;;;;;;;5045501;28;20453;-80
2022/06/19 03:36:11;;;;;;;1.73;1.30;;;;;;;;;;5043627;28;20961;-78
2022/06/19 03:38:38;;;;;;;1.67;1.30;;;;;;;;;;5040426;28;20457;-78
2022/06/19 03:41:06;;;;;;;4.23;1.40;;;;;;;;;;5039941;28;20802;-82
2022/06/19 03:43:34;;;;;;;2.73;1.47;;;;;;;;;;5044993;28;20524;-80
2022/06/19 03:46:01;;;;;;;3.60;1.30;;;;;;;;;;5041453;28;20481;-79
2022/06/19 03:48:28;;;;;;;3.20;1.40;;;;;;;;;;5038738;28;20450;-80
2022/06/19 03:50:55;;;;;;;1.30;1.10;;;;;;;;;;5044328;28;20524;-80
2022/06/19 03:53:22;;;;;;;1.53;1.40;;;;;;;;;;5052961;28;20911;-79
2022/06/19 03:55:49;;;;;;;2.90;1.77;;;;;;;;;;5043283;28;20945;-79
2022/06/19 03:58:18;;;;;;;1.70;1.37;;;;;;;;;;5048177;28;20469;-80
2022/06/19 04:00:45;;;;;;;2.80;1.27;;;;;;;;;;5039660;28;20480;-78
2022/06/19 04:03:12;;;;;;;2.93;1.20;;;;;;;;;;5044324;28;20457;-80
2022/06/19 04:05:39;;;;;;;1.50;1.20;;;;;;;;;;5048606;28;20454;-79
2022/06/19 04:08:06;;;;;;;1.80;1.20;;;;;;;;;;5032238;28;21013;-80
2022/06/19 04:10:34;;;;;;;3.00;1.40;;;;;;;;;;5032350;28;20477;-79
2022/06/19 04:13:01;;;;;;;1.70;1.20;;;;;;;;;;5044522;28;20461;-79
2022/06/19 04:15:30;;;;;;;6.20;1.73;;;;;;;;;;5035238;28;20953;-79
2022/06/19 04:17:57;;;;;;;1.30;1.17;;;;;;;;;;5047175;28;20445;-79
2022/06/19 04:20:24;;;;;;;1.53;1.43;;;;;;;;;;5035982;28;20447;-79
2022/06/19 04:22:51;;;;;;;1.90;1.10;;;;;;;;;;5032547;28;20966;-80
2022/06/19 04:25:18;;;;;;;2.80;1.27;;;;;;;;;;5046271;28;20458;-79
2022/06/19 04:27:45;;;;;;;3.50;1.57;;;;;;;;;;5037400;28;20485;-79
2022/06/19 04:30:13;;;;;;;2.57;1.70;;;;;;;;;;5046209;28;20466;-79
2022/06/19 04:32:41;;;;;;;2.73;1.80;;;;;;;;;;5046518;28;20523;-79
2022/06/19 04:35:09;;;;;;;2.60;1.03;;;;;;;;;;5039378;28;20463;-80
2022/06/19 04:37:36;;;;;;;2.60;1.10;;;;;;;;;;5030712;28;20454;-79
2022/06/19 04:40:04;;;;;;;3.13;1.30;;;;;;;;;;5047253;28;20461;-79
2022/06/19 04:42:31;;;;;;;2.23;1.30;;;;;;;;;;5037842;28;20486;-79
2022/06/19 04:44:58;;;;;;;2.43;1.40;;;;;;;;;;5039218;28;20453;-80
2022/06/19 04:47:25;;;;;;;2.40;1.27;;;;;;;;;;5045853;28;20481;-79
2022/06/19 04:49:53;;;;;;;1.70;1.10;;;;;;;;;;5050053;28;20442;-82
2022/06/19 04:52:20;;;;;;;3.23;1.23;;;;;;;;;;5038321;28;20452;-80
2022/06/19 04:54:47;;;;;;;1.60;1.20;;;;;;;;;;5048360;28;20464;-81
2022/06/19 04:57:14;;;;;;;1.63;1.13;;;;;;;;;;5049936;28;20933;-81
2022/06/19 04:59:43;;;;;;;3.30;1.03;;;;;;;;;;5044879;28;20507;-80
2022/06/19 05:02:12;;;;;;;1.60;1.20;;;;;;;;;;5043722;28;20556;-80
2022/06/19 05:04:39;;;;;;;3.57;1.77;;;;;;;;;;5047670;28;20458;-79
2022/06/19 05:07:08;;;;;;;2.00;1.17;;;;;;;;;;5039271;28;20477;-79
2022/06/19 05:09:35;;;;;;;2.33;1.83;;;;;;;;;;5047061;28;20449;-81
2022/06/19 05:12:02;;;;;;;1.90;1.17;;;;;;;;;;5042729;28;20460;-79
2022/06/19 05:14:29;;;;;;;1.90;1.20;;;;;;;;;;5039565;28;20465;-79
2022/06/19 05:16:56;;;;;;;2.03;1.17;;;;;;;;;;5043038;28;20952;-79
2022/06/19 05:19:23;;;;;;;4.37;1.50;;;;;;;;;;5041555;28;20527;-80
2022/06/19 05:21:50;;;;;;;2.30;1.30;;;;;;;;;;5038937;28;20458;-78
2022/06/19 05:24:18;;;;;;;3.97;1.33;;;;;;;;;;5040575;28;20461;-78
2022/06/19 05:26:45;;;;;;;2.70;1.27;;;;;;;;;;5035151;28;21008;-78
2022/06/19 05:29:12;;;;;;;3.40;1.60;;;;;;;;;;5046860;28;20457;-78
2022/06/19 05:31:39;;;;;;;3.00;1.50;;;;;;;;;;5044905;28;20464;-79
2022/06/19 05:34:07;;;;;;;5.07;1.50;;;;;;;;;;5038691;28;20806;-78
2022/06/19 05:36:34;;;;;;;1.83;1.37;;;;;;;;;;5031600;28;20508;-79
2022/06/19 05:39:01;;;;;;;3.13;1.47;;;;;;;;;;5041214;28;20864;-77
2022/06/19 05:41:30;;;;;;;4.17;1.60;;;;;;;;;;5047533;28;20465;-80
2022/06/19 05:43:57;;;;;;;5.30;1.30;;;;;;;;;;5047720;28;20876;-77
2022/06/19 05:46:24;;;;;;;5.53;1.77;;;;;;;;;;5044290;28;20465;-79
2022/06/19 05:48:51;;;;;;;3.43;1.50;;;;;;;;;;5043566;28;20941;-78
2022/06/19 05:51:19;;;;;;;4.97;2.47;;;;;;;;;;5036884;28;20461;-77
2022/06/19 05:53:48;;;;;;;2.70;1.23;;;;;;;;;;5045997;28;20949;-79
2022/06/19 05:56:15;;;;;;;2.90;1.43;;;;;;;;;;5040879;28;20461;-76
2022/06/19 05:58:44;;;;;;;2.97;1.40;;;;;;;;;;5048364;28;20441;-77
2022/06/19 06:01:12;;;;;;;5.10;1.93;;;;;;;;;;5037437;28;20489;-79
2022/06/19 06:03:41;;;;;;;5.33;1.80;;;;;;;;;;5046998;28;20466;-79
2022/06/19 06:06:12;;;;;;;2.90;1.97;;;;;;;;;;5046870;28;20450;-78
2022/06/19 06:08:39;;;;;;;2.80;1.40;;;;;;;;;;5033831;28;20486;-77
2022/06/19 06:11:06;;;;;;;7.40;1.50;;;;;;;;;;5035496;28;20723;-80
2022/06/19 06:13:33;;;;;;;4.80;2.30;;;;;;;;;;5045850;28;20496;-78
2022/06/19 06:16:02;;;;;;;6.80;1.93;;;;;;;;;;5047730;28;20462;-78
2022/06/19 06:18:29;;;;;;;4.00;1.90;;;;;;;;;;5047024;28;20527;-79
2022/06/19 06:20:56;;;;;;;3.43;1.30;;;;;;;;;;5035251;28;20734;-78
2022/06/19 06:23:23;;;;;;;2.40;1.47;;;;;;;;;;5039259;28;20895;-79
2022/06/19 06:25:58;;;;;;;9.70;2.60;;;;;;;;;;5048340;28;20457;-78
2022/06/19 06:28:25;;;;;;;4.43;1.50;;;;;;;;;;5053410;28;20848;-79
2022/06/19 06:30:52;;;;;;;6.63;2.03;;;;;;;;;;5037935;28;20480;-80
2022/06/19 06:33:21;;;;;;;6.57;1.80;;;;;;;;;;5048152;28;20468;-78
2022/06/19 06:35:48;;;;;;;4.70;1.83;;;;;;;;;;5040523;28;20817;-79
2022/06/19 06:38:15;;;;;;;3.10;1.47;;;;;;;;;;5036153;28;20525;-79
2022/06/19 06:40:42;;;;;;;2.20;1.50;;;;;;;;;;5052095;28;20453;-78
2022/06/19 06:43:09;;;;;;;4.77;2.03;;;;;;;;;;5051349;28;20453;-78
2022/06/19 06:45:36;;;;;;;4.33;1.53;;;;;;;;;;5042471;28;20924;-79
2022/06/19 06:48:04;;;;;;;5.33;1.83;;;;;;;;;;5040706;28;20845;-77
2022/06/19 06:50:32;;;;;;;4.07;1.60;;;;;;;;;;5040852;28;20465;-77
2022/06/19 06:52:59;;;;;;;4.40;2.03;;;;;;;;;;5048175;28;21213;-78
2022/06/19 06:55:26;;;;;;;7.53;2.03;;;;;;;;;;5046588;28;20455;-75
2022/06/19 06:57:53;;;;;;;2.93;1.50;;;;;;;;;;5045363;28;20824;-76
2022/06/19 07:00:23;;;;;;;5.07;2.30;;;;;;;;;;5044274;28;20959;-77
2022/06/19 07:02:50;;;;;;;4.43;1.60;;;;;;;;;;5043663;28;20813;-77
2022/06/19 07:05:18;;;;;;;4.97;2.17;;;;;;;;;;5050679;28;20465;-77
2022/06/19 07:07:46;;;;;;;3.93;1.27;;;;;;;;;;5037709;28;20868;-78
2022/06/19 07:10:13;;;;;;;3.87;1.90;;;;;;;;;;5039174;28;20466;-77
2022/06/19 07:12:40;;;;;;;8.20;1.77;;;;;;;;;;5043912;28;20466;-76
2022/06/19 07:15:08;;;;;;;3.90;2.10;;;;;;;;;;5044431;28;20461;-75
2022/06/19 07:17:35;;;;;;;5.20;2.17;;;;;;;;;;5043990;28;20498;-78
2022/06/19 07:20:02;;;;;;;3.90;1.13;;;;;;;;;;5044548;28;20462;-75
2022/06/19 07:22:29;;;;;;;4.13;1.63;;;;;;;;;;5048204;28;20949;-75
2022/06/19 07:24:58;;;;;;;1.90;1.13;;;;;;;;;;5041562;28;20466;-76
2022/06/19 07:27:25;;;;;;;6.90;1.83;;;;;;;;;;5038291;28;20993;-75
2022/06/19 07:29:52;;;;;;;3.23;1.43;;;;;;;;;;5043900;28;20861;-76
2022/06/19 07:32:19;;;;;;;5.23;1.50;;;;;;;;;;5039319;28;20841;-76
2022/06/19 07:34:46;;;;;;;2.90;1.30;;;;;;;;;;5041232;28;20470;-77
2022/06/19 07:37:14;;;;;;;4.53;1.50;;;;;;;;;;5031874;28;20474;-77
2022/06/19 07:39:42;;;;;;;5.93;1.70;;;;;;;;;;5039107;28;21014;-76
2022/06/19 07:42:11;;;;;;;3.90;1.40;;;;;;;;;;5045997;28;20524;-76
2022/06/19 07:44:38;;;;;;;4.43;1.63;;;;;;;;;;5042424;28;20466;-77
2022/06/19 07:52:35;;;;;;;3.90;1.70;;;;;;;;;;5039968;28;20468;-78
2022/06/19 07:55:02;;;;;;;3.30;1.67;;;;;;;;;;5030885;28;20442;-77
2022/06/19 07:57:30;;;;;;;2.37;1.50;;;;;;;;;;5031651;28;20446;-77
2022/06/19 07:59:57;;;;;;;2.80;1.77;;;;;;;;;;5048072;28;20469;-76
2022/06/19 08:02:25;;;;;;;4.50;1.70;;;;;;;;;;5041878;28;20953;-79
2022/06/19 08:04:52;;;;;;;3.40;1.60;;;;;;;;;;5047859;28;20442;-78
2022/06/19 08:07:19;;;;;;;7.13;1.90;;;;;;;;;;5031297;28;20517;-76
2022/06/19 08:09:47;;;;;;;4.27;1.90;;;;;;;;;;5049432;28;20453;-79
2022/06/19 08:12:14;;;;;;;3.80;1.90;;;;;;;;;;5044044;28;20464;-78
2022/06/19 08:14:43;;;;;;;5.90;1.97;;;;;;;;;;5044598;28;20830;-77
2022/06/19 08:17:10;;;;;;;4.00;1.70;;;;;;;;;;5044810;28;20453;-76
2022/06/19 08:19:37;;;;;;;5.03;1.53;;;;;;;;;;5047836;28;20485;-76
2022/06/19 08:22:04;;;;;;;7.63;2.03;;;;;;;;;;5030709;28;20458;-79
2022/06/19 08:24:31;;;;;;;4.80;2.00;;;;;;;;;;5038707;28;20453;-77
2022/06/19 08:26:59;;;;;;;4.90;1.70;;;;;;;;;;5046530;28;20507;-77
2022/06/19 08:29:26;;;;;;;5.27;1.90;;;;;;;;;;5039680;28;20562;-78
2022/06/19 08:31:55;;;;;;;2.53;1.40;;;;;;;;;;5034026;28;20470;-78
2022/06/19 08:34:22;;;;;;;8.50;2.03;;;;;;;;;;5051124;28;21217;-78
2022/06/19 08:36:49;;;;;;;3.50;1.70;;;;;;;;;;5042266;28;20470;-77
2022/06/19 08:39:18;;;;;;;3.53;1.77;;;;;;;;;;5040577;28;20461;-79
2022/06/19 08:41:58;;;;;;;8.03;2.00;;;;;;;;;;5034527;28;20983;-78
2022/06/19 08:44:43;;;;;;;4.93;1.50;;;;;;;;;;5049149;28;20461;-79
2022/06/19 08:47:18;;;;;;;6.63;2.23;;;;;;;;;;5040256;28;20821;-78
2022/06/19 08:49:52;;;;;;;2.20;1.20;;;;;;;;;;5048649;28;20536;-77
2022/06/19 08:52:25;;;;;;;1.63;1.20;;;;;;;;;;5041676;28;20460;-78
2022/06/19 08:54:57;;;;;;;2.83;1.40;;;;;;;;;;5051369;28;20978;-77
2022/06/19 08:57:30;;;;;;;4.20;2.13;;;;;;;;;;5031284;28;20850;-79
2022/06/19 09:00:04;;;;;;;5.30;1.70;;;;;;;;;;5040689;28;20465;-76
2022/06/19 09:02:44;;;;;;;4.70;1.40;;;;;;;;;;5038960;28;20457;-75
2022/06/19 09:08:08;;;;;;;3.00;1.37;;;;;;;;;;5033370;28;20527;-76
2022/06/19 09:10:40;;;;;;;2.47;1.30;;;;;;;;;;5037014;28;20466;-77
2022/06/19 09:13:16;;;;;;;2.83;1.30;;;;;;;;;;5038797;28;20460;-75
2022/06/19 09:15:45;;;;;;;6.63;1.87;;;;;;;;;;5040154;28;21205;-76
2022/06/19 09:18:18;;;;;;;3.77;1.53;;;;;;;;;;5035802;28;20458;-75
2022/06/19 09:20:46;;;;;;;3.63;1.77;;;;;;;;;;5037262;28;20462;-80
2022/06/19 09:23:31;;;;;;;3.77;1.80;;;;;;;;;;5035213;28;20457;-77
2022/06/19 09:26:00;;;;;;;4.90;1.80;;;;;;;;;;5038330;28;20447;-77
2022/06/19 09:28:30;;;;;;;2.77;1.50;;;;;;;;;;5045695;28;20833;-77
2022/06/19 09:31:01;;;;;;;3.03;1.30;;;;;;;;;;5042737;28;20867;-76
2022/06/19 09:33:34;;;;;;;3.30;1.50;;;;;;;;;;5051847;28;20944;-76
2022/06/19 09:36:03;;;;;;;3.37;1.70;;;;;;;;;;5049136;28;20465;-77
2022/06/19 09:38:33;;;;;;;3.20;1.47;;;;;;;;;;5042095;28;21138;-76
2022/06/19 09:41:02;;;;;;;5.47;1.80;;;;;;;;;;5034200;28;20461;-79
2022/06/19 09:43:31;;;;;;;3.43;1.30;;;;;;;;;;5047307;28;20677;-75
2022/06/19 09:46:01;;;;;;;4.17;1.70;;;;;;;;;;5042923;28;20464;-76
2022/06/19 09:48:34;;;;;;;3.80;1.63;;;;;;;;;;5048152;28;20491;-75
2022/06/19 09:51:03;;;;;;;2.90;1.30;;;;;;;;;;5034040;28;20465;-75
2022/06/19 09:53:34;;;;;;;3.40;1.40;;;;;;;;;;5046454;28;20511;-76
2022/06/19 09:56:07;;;;;;;2.10;1.33;;;;;;;;;;5050747;28;21171;-75
2022/06/19 09:58:36;;;;;;;1.50;1.00;;;;;;;;;;5033465;28;20453;-78
2022/06/19 10:01:04;;;;;;;2.90;1.33;;;;;;;;;;5038612;28;20464;-76
2022/06/19 10:03:35;;;;;;;4.33;1.77;;;;;;;;;;5047036;28;20445;-75
2022/06/19 10:06:06;;;;;;;2.47;1.20;;;;;;;;;;5047262;28;20962;-74
2022/06/19 10:08:36;;;;;;;2.57;1.30;;;;;;;;;;5043262;28;20481;-76
2022/06/19 10:11:05;;;;;;;4.03;1.67;;;;;;;;;;5042033;28;20465;-76
2022/06/19 10:13:35;;;;;;;4.20;1.70;;;;;;;;;;5050920;28;20441;-76
2022/06/19 10:16:03;;;;;;;1.93;1.10;;;;;;;;;;5036737;28;20458;-76
2022/06/19 10:18:32;;;;;;;2.90;1.30;;;;;;;;;;5041218;28;20447;-76
2022/06/19 10:21:03;;;;;;;3.10;1.60;;;;;;;;;;5033921;28;20461;-75
2022/06/19 10:23:37;;;;;;;2.33;1.17;;;;;;;;;;5041385;28;21020;-75
2022/06/19 10:26:17;;;;;;;6.77;2.20;;;;;;;;;;5037424;28;20524;-75
2022/06/19 10:28:59;;;;;;;5.20;1.73;;;;;;;;;;5039227;28;20987;-79
2022/06/19 10:31:33;;;;;;;3.13;1.43;;;;;;;;;;5039362;28;20461;-76
2022/06/19 10:34:04;;;;;;;3.17;1.60;;;;;;;;;;5042629;28;20488;-75
2022/06/19 10:36:35;;;;;;;4.70;1.67;;;;;;;;;;5040797;28;20465;-77
2022/06/19 10:39:14;;;;;;;3.27;1.40;;;;;;;;;;5038330;28;20525;-75
2022/06/19 10:42:04;;;;;;;2.67;1.70;;;;;;;;;;5037704;28;20485;-77
2022/06/19 10:44:36;;;;;;;5.30;1.90;;;;;;;;;;5045629;28;20469;-75
2022/06/19 10:47:07;;;;;;;3.93;1.63;;;;;;;;;;5046963;28;20480;-75
2022/06/19 10:49:37;;;;;;;5.20;2.00;;;;;;;;;;5037567;28;20992;-78
2022/06/19 10:52:09;;;;;;;3.43;1.40;;;;;;;;;;5039822;28;20465;-76
2022/06/19 10:54:41;;;;;;;4.33;1.80;;;;;;;;;;5044657;28;20560;-77
2022/06/19 10:57:13;;;;;;;9.33;1.93;;;;;;;;;;5042537;28;20520;-78
2022/06/19 10:59:40;;;;;;;2.73;1.67;;;;;;;;;;5044281;28;20527;-77
2022/06/19 11:05:01;;;;;;;4.03;1.67;;;;;;;;;;5043536;28;20456;-79
2022/06/19 11:07:30;;;;;;;5.87;1.50;;;;;;;;;;5036366;28;20817;-79
2022/06/19 11:09:58;;;;;;;5.60;2.40;;;;;;;;;;5041449;28;20497;-78
2022/06/19 11:12:29;;;;;;;5.70;1.63;;;;;;;;;;5039117;28;20456;-80
2022/06/19 11:14:57;;;;;;;3.73;1.50;;;;;;;;;;5046119;28;20554;-78
2022/06/19 11:17:31;;;;;;;3.90;1.57;;;;;;;;;;5045099;28;20453;-79
2022/06/19 11:19:58;;;;;;;4.00;1.37;;;;;;;;;;5046361;28;20818;-79
2022/06/19 11:22:36;;;;;;;3.67;1.57;;;;;;;;;;5033194;28;20995;-79
2022/06/19 11:25:30;;;;;;;3.87;1.20;;;;;;;;;;5049559;28;20868;-79
2022/06/19 11:28:01;;;;;;;4.23;1.90;;;;;;;;;;5006476;28;20795;-79
2022/06/19 11:30:29;;;;;;;3.80;1.50;;;;;;;;;;5042940;28;20900;-80
2022/06/19 11:32:57;;;;;;;6.73;1.80;;;;;;;;;;5042799;28;21333;-78
2022/06/19 11:35:24;;;;;;;4.70;1.40;;;;;;;;;;5038117;28;20548;-79
2022/06/19 11:37:54;;;;;;;4.43;1.40;;;;;;;;;;5032322;28;20460;-80
2022/06/19 11:40:28;;;;;;;7.17;2.30;;;;;;;;;;5037546;28;21096;-80
2022/06/19 11:42:57;;;;;;;3.40;1.73;;;;;;;;;;5048383;28;20822;-78
2022/06/19 11:45:27;;;;;;;3.23;1.70;;;;;;;;;;5040569;28;20676;-80
2022/06/19 11:48:01;;;;;;;4.23;1.67;;;;;;;;;;5045321;28;20450;-78
2022/06/19 11:50:38;;;;;;;4.60;1.57;;;;;;;;;;5041327;28;20561;-79
2022/06/19 11:53:13;;;;;;;4.90;1.70;;;;;;;;;;5040566;28;21005;-80
2022/06/19 11:55:42;;;;;;;3.63;1.57;;;;;;;;;;5036934;28;20468;-79
2022/06/19 11:58:15;;;;;;;2.50;1.20;;;;;;;;;;5049498;28;20865;-79
2022/06/19 12:00:44;;;;;;;4.70;2.30;;;;;;;;;;5040050;28;20470;-79
2022/06/19 12:03:18;;;;;;;1.93;1.20;;;;;;;;;;5045445;28;20445;-80
2022/06/19 12:05:53;;;;;;;6.63;1.70;;;;;;;;;;5032400;28;20450;-80
2022/06/19 12:08:24;;;;;;;4.20;1.80;;;;;;;;;;5036939;28;20465;-79
2022/06/19 12:10:53;;;;;;;3.20;1.40;;;;;;;;;;5038424;28;20880;-80
2022/06/19 12:13:22;;;;;;;3.33;1.73;;;;;;;;;;5048821;28;20433;-80
2022/06/19 12:15:59;;;;;;;4.97;1.93;;;;;;;;;;5040013;28;20556;-79
2022/06/19 12:18:26;;;;;;;2.67;2.00;;;;;;;;;;5045871;28;20496;-79
2022/06/19 12:20:58;;;;;;;3.00;2.03;;;;;;;;;;5039590;28;20680;-78
2022/06/19 12:23:29;;;;;;;3.47;1.50;;;;;;;;;;5047689;28;20449;-80
2022/06/19 12:25:58;;;;;;;4.27;2.13;;;;;;;;;;5043318;28;20461;-81
2022/06/19 12:28:27;;;;;;;3.10;1.90;;;;;;;;;;5048326;28;20972;-81
2022/06/19 12:30:56;;;;;;;3.53;1.60;;;;;;;;;;5040196;28;20924;-81
2022/06/19 12:33:26;;;;;;;4.07;1.50;;;;;;;;;;5048096;28;20429;-80
2022/06/19 12:35:53;;;;;;;2.87;1.60;;;;;;;;;;5043196;28;20975;-81
2022/06/19 12:38:21;;;;;;;3.27;1.33;;;;;;;;;;5033870;28;20955;-80
2022/06/19 12:41:01;;;;;;;2.10;0.97;;;;;;;;;;5048434;28;20456;-80
2022/06/19 12:43:32;;;;;;;2.27;1.53;;;;;;;;;;5038584;28;20983;-80
2022/06/19 12:45:59;;;;;;;4.17;1.53;;;;;;;;;;5043409;28;20956;-80
2022/06/19 12:48:32;;;;;;;2.80;1.53;;;;;;;;;;5048587;28;20846;-80
2022/06/19 12:51:03;;;;;;;5.20;1.63;;;;;;;;;;5036879;28;20465;-78
2022/06/19 12:53:51;;;;;;;2.90;1.80;;;;;;;;;;5050811;28;20870;-80
2022/06/19 12:56:24;;;;;;;8.30;2.17;;;;;;;;;;5008376;28;20479;-79
2022/06/19 12:59:03;;;;;;;3.30;1.33;;;;;;;;;;5040997;28;20469;-79
2022/06/19 13:01:36;;;;;;;5.23;1.87;;;;;;;;;;5039701;28;20984;-78
2022/06/19 13:04:09;;;;;;;3.43;1.60;;;;;;;;;;5049818;28;20461;-79
2022/06/19 13:06:51;;;;;;;3.07;1.47;;;;;;;;;;5038781;28;20450;-80
2022/06/19 13:09:29;;;;;;;4.20;1.50;;;;;;;;;;5052164;28;20480;-80
2022/06/19 13:12:03;;;;;;;2.10;1.40;;;;;;;;;;5043685;28;20846;-79
2022/06/19 13:14:49;;;;;;;2.90;1.77;;;;;;;;;;5049549;28;20540;-78
2022/06/19 13:17:19;;;;;;;2.80;1.60;;;;;;;;;;5038347;28;20474;-79
2022/06/19 13:19:54;;;;;;;2.73;1.50;;;;;;;;;;5039746;28;20497;-80
2022/06/19 13:22:24;;;;;;;5.50;1.67;;;;;;;;;;5053292;28;20819;-80
2022/06/19 13:24:57;;;;;;;2.47;1.30;;;;;;;;;;5043071;28;20986;-80
2022/06/19 13:27:34;;;;;;;3.47;1.40;;;;;;;;;;5050322;28;20457;-79
2022/06/19 13:30:12;;;;;;;4.37;1.80;;;;;;;;;;5035366;28;21007;-80
2022/06/19 13:32:41;;;;;;;6.00;2.13;;;;;;;;;;5044012;28;20539;-81
2022/06/19 13:35:15;;;;;;;2.57;1.60;;;;;;;;;;5048302;28;20472;-78
2022/06/19 13:37:57;;;;;;;2.80;1.40;;;;;;;;;;5047225;28;20481;-79
2022/06/19 13:40:27;;;;;;;2.83;1.50;;;;;;;;;;5040599;28;20487;-80
2022/06/19 13:43:01;;;;;;;4.33;2.00;;;;;;;;;;5044696;28;20462;-80
2022/06/19 13:45:37;;;;;;;3.30;2.00;;;;;;;;;;5046090;28;20464;-80
2022/06/19 13:48:07;;;;;;;3.60;1.47;;;;;;;;;;5040960;28;20467;-80
2022/06/19 13:50:37;;;;;;;5.20;1.70;;;;;;;;;;5042479;28;20477;-80
2022/06/19 13:53:07;;;;;;;3.60;2.10;;;;;;;;;;5036839;28;20841;-80
2022/06/19 13:55:52;;;;;;;3.77;1.30;;;;;;;;;;5047127;28;20454;-80
2022/06/19 13:58:26;;;;;;;5.20;1.30;;;;;;;;;;5031410;28;20450;-80
2022/06/19 14:00:59;;;;;;;1.70;1.20;;;;;;;;;;5037734;28;20469;-78
2022/06/19 14:06:30;;;;;;;3.53;1.83;;;;;;;;;;5034932;28;20495;-80
2022/06/19 14:09:03;;;;;;;3.07;1.40;;;;;;;;;;5041337;28;20558;-80
2022/06/19 14:12:03;;;;;;;2.60;1.37;;;;;;;;;;5040546;28;20513;-79
2022/06/19 14:14:22;;;;;;;3.60;1.60;;;;;;;;;;5041673;28;20459;-80
2022/06/19 14:16:51;;;;;;;3.77;1.90;;;;;;;;;;5042715;28;20465;-78
2022/06/19 14:19:22;;;;;;;5.40;2.60;;;;;;;;;;5044559;28;20442;-79
2022/06/19 14:22:06;;;;;;;4.00;1.63;;;;;;;;;;5037575;28;20469;-80
2022/06/19 14:24:37;;;;;;;4.40;1.70;;;;;;;;;;5040832;28;20504;-80
2022/06/19 14:27:12;;;;;;;3.30;1.30;;;;;;;;;;5043273;28;20433;-81
2022/06/19 14:29:43;;;;;;;2.70;1.40;;;;;;;;;;5042398;28;20645;-79
2022/06/19 14:32:14;;;;;;;5.23;1.63;;;;;;;;;;5036930;28;20874;-77
2022/06/19 14:34:48;;;;;;;5.30;2.10;;;;;;;;;;5047669;28;20449;-79
2022/06/19 14:37:49;;;;;;;4.73;1.30;;;;;;;;;;5032852;28;20514;-80
2022/06/19 14:40:36;;;;;;;4.23;1.73;;;;;;;;;;4983920;28;20453;-79
2022/06/19 14:43:06;;;;;;;5.10;1.70;;;;;;;;;;4970960;28;20488;-78
2022/06/19 14:45:37;;;;;;;3.50;1.97;;;;;;;;;;5015549;28;20824;-79
2022/06/19 14:48:08;;;;;;;3.50;1.63;;;;;;;;;;5040270;28;20457;-81
2022/06/19 14:50:50;;;;;;;2.60;1.50;;;;;;;;;;5043372;28;20496;-79
2022/06/19 14:53:32;;;;;;;3.20;1.50;;;;;;;;;;5032195;28;20489;-81
2022/06/19 14:56:17;;;;;;;2.63;1.33;;;;;;;;;;5035625;28;20457;-78
2022/06/19 14:58:46;;;;;;;6.27;1.70;;;;;;;;;;5032645;28;20467;-82
2022/06/19 15:01:22;;;;;;;2.77;1.23;;;;;;;;;;5038474;28;20461;-78
2022/06/19 15:03:50;;;;;;;3.87;1.97;;;;;;;;;;5042255;28;20552;-80
2022/06/19 15:06:18;;;;;;;2.23;1.30;;;;;;;;;;5044628;28;20462;-80
2022/06/19 15:08:48;;;;;;;2.70;1.70;;;;;;;;;;5048062;28;20433;-81
2022/06/19 15:11:23;;;;;;;3.00;1.77;;;;;;;;;;5039602;28;20577;-80
2022/06/19 15:13:51;;;;;;;3.90;1.40;;;;;;;;;;5038031;28;20473;-78
2022/06/19 15:16:24;;;;;;;3.93;1.83;;;;;;;;;;5033261;28;22230;-80